CST,Max TemperatureF,Mean TemperatureF,Min TemperatureF,Max Dew PointF,MeanDew PointF,Min DewpointF,Max Humidity, Mean Humidity, Min Humidity, Max Sea Level PressureIn, Mean Sea Level PressureIn, Min Sea Level PressureIn, Max VisibilityMiles, Mean VisibilityMiles, Min VisibilityMiles, Max Wind SpeedMPH, Mean Wind SpeedMPH, Max Gust SpeedMPH,PrecipitationIn, CloudCover, Events, WindDirDegrees
2011-12-1,34,21,8,29,19,6,85,64,43,30.62,30.40,30.04,10,10,4,30,16,39,T,4,,352
2011-12-2,38,21,4,18,12,2,91,64,37,30.55,30.25,30.05,10,10,10,29,10,36,0.00,0,,184
2011-12-3,31,23,14,28,25,12,92,84,75,30.18,30.07,30.00,10,3,0,23,10,29,0.08,7,Fog-Snow,348
2011-12-4,28,11,-7,19,5,-9,100,84,68,30.53,30.24,30.10,10,8,0,24,5,30,0.00,2,Fog-Snow,299
2011-12-5,19,4,-11,10,6,-13,91,79,67,30.65,30.52,30.39,10,10,6,25,12,31,T,4,Snow,340
2011-12-6,18,2,-15,8,-7,-19,92,77,61,30.59,30.34,30.16,10,8,0,18,5,22,0.00,1,Fog,205
2011-12-7,41,21,1,29,16,-2,100,82,64,30.23,30.15,30.00,10,7,0,15,5,17,0.00,1,Fog-Rain,317
2011-12-8,28,22,16,25,21,12,92,87,81,30.36,30.24,30.13,10,4,0,16,5,20,0.06,8,Fog-Snow,19
2011-12-9,23,13,3,16,11,3,92,73,54,30.52,30.42,30.23,10,10,10,13,4,15,0.00,4,,319
2011-12-10,42,23,4,28,16,1,100,77,54,30.47,30.34,30.22,10,8,2,15,4,17,0.00,1,,207
2011-12-11,36,29,21,34,26,19,96,86,75,30.21,30.07,29.95,8,4,2,20,10,24,0.00,6,,182
2011-12-12,37,32,26,34,27,23,96,87,78,30.33,30.16,30.02,10,7,4,16,8,20,0.00,7,,310
2011-12-13,33,30,27,33,28,25,100,96,92,30.32,30.18,29.96,4,1,0,10,4,14,0.00,8,Fog,101
2011-12-14,39,34,28,35,32,25,100,88,75,30.01,29.81,29.72,10,4,0,21,6,28,0.06,6,Fog-Rain,313
2011-12-15,37,26,14,23,17,11,81,61,40,30.43,30.29,30.04,10,10,10,28,10,35,0.00,0,,317
2011-12-16,44,29,13,27,19,10,92,71,49,30.42,30.36,30.23,10,10,10,15,6,18,0.00,0,,262
2011-12-17,50,34,17,29,23,16,92,67,42,30.39,30.32,30.20,10,10,10,12,4,14,0.00,0,,237
2011-12-18,50,35,20,30,25,18,92,67,42,30.20,29.97,29.83,10,10,10,12,4,15,0.00,0,,211
2011-12-19,39,33,27,28,24,19,85,71,56,30.30,30.18,29.87,10,10,10,25,13,31,0.00,4,,7
2011-12-20,38,25,11,21,16,9,92,62,32,30.28,30.02,29.76,10,10,10,13,5,15,0.00,0,,219
2011-12-21,43,30,17,32,25,13,96,75,53,30.12,29.87,29.64,10,8,2,24,10,31,0.02,5,Snow,345
2011-12-22,32,22,11,28,19,8,92,78,63,30.51,30.37,30.08,10,10,7,24,10,31,T,4,,345
2011-12-23,40,26,11,24,15,8,84,66,48,30.46,30.31,30.19,10,10,10,15,7,18,0.00,0,,244
2011-12-24,51,34,16,24,18,13,84,55,26,30.41,30.35,30.27,10,10,10,14,5,17,0.00,0,,297
2011-12-25,49,34,18,24,20,16,88,61,34,30.54,30.41,30.22,10,10,10,10,6,17,0.00,0,,278
2011-12-26,54,40,26,24,21,15,81,52,22,30.19,30.02,29.90,10,10,10,22,11,29,0.00,0,,283
2011-12-27,42,32,21,23,20,17,75,58,41,30.15,30.08,30.01,10,10,9,16,7,22,0.00,1,,298
2011-12-28,54,37,19,27,22,16,91,60,29,30.01,29.91,29.79,10,10,10,15,5,18,0.00,0,,263
2011-12-29,56,40,23,39,31,22,85,64,43,29.79,29.66,29.47,10,10,10,33,9,41,0.01,2,Rain,270
2011-12-30,51,39,27,30,22,18,70,49,27,29.87,29.81,29.71,10,10,10,28,13,37,0.00,0,,296
2011-12-31,47,37,26,34,28,22,85,65,45,30.17,29.71,29.50,10,10,10,36,16,48,T,2,,342